Time;durP1;ratioP1;P1;durP2;ratioP2;P2;SDS_P1;SDS_P2;PMS_P1;PMS_P2;Temp;Humidity;BMP_temperature;BMP_pressure;BME280_temperature;BME280_humidity;BME280_pressure;Samples;Min_cycle;Max_cycle;Signal;HPM_P1;HPM_P2
2021/12/22 00:02:19;;;;;;;2.55;2.42;;;;;;;;;;5031996;28;20166;-66
2021/12/22 00:04:46;;;;;;;2.78;2.58;;;;;;;;;;5032288;28;20233;-67
2021/12/22 00:07:12;;;;;;;3.03;2.78;;;;;;;;;;5032147;28;20190;-66
2021/12/22 00:09:38;;;;;;;3.35;3.08;;;;;;;;;;5031899;28;20162;-66
2021/12/22 00:12:03;;;;;;;5.20;2.95;;;;;;;;;;5031886;28;20300;-66
2021/12/22 00:14:28;;;;;;;3.15;2.83;;;;;;;;;;5031820;28;20191;-67
2021/12/22 00:16:53;;;;;;;2.75;2.50;;;;;;;;;;5032026;28;20202;-67
2021/12/22 00:19:19;;;;;;;2.88;2.67;;;;;;;;;;5032105;28;20228;-67
2021/12/22 00:21:44;;;;;;;3.05;2.85;;;;;;;;;;5031769;28;20158;-67
2021/12/22 00:24:09;;;;;;;3.00;2.80;;;;;;;;;;5031816;28;20588;-67
2021/12/22 00:26:34;;;;;;;3.13;2.90;;;;;;;;;;5032049;28;20228;-66
2021/12/22 00:29:00;;;;;;;3.15;2.90;;;;;;;;;;5032031;28;20521;-67
2021/12/22 00:31:25;;;;;;;3.70;2.55;;;;;;;;;;5031691;28;20174;-67
2021/12/22 00:33:52;;;;;;;2.90;2.70;;;;;;;;;;5031810;28;20190;-67
2021/12/22 00:36:19;;;;;;;2.80;2.60;;;;;;;;;;5031889;28;20290;-65
2021/12/22 00:38:45;;;;;;;2.90;2.70;;;;;;;;;;5031658;28;20232;-66
2021/12/22 00:41:10;;;;;;;3.25;2.70;;;;;;;;;;5031598;28;20552;-65
2021/12/22 00:43:36;;;;;;;3.28;2.65;;;;;;;;;;5032259;28;20254;-66
2021/12/22 00:46:02;;;;;;;3.47;2.63;;;;;;;;;;5035416;28;20170;-67
2021/12/22 00:48:27;;;;;;;2.80;2.60;;;;;;;;;;5035721;28;20177;-67
2021/12/22 00:50:55;;;;;;;2.80;2.60;;;;;;;;;;5035417;28;20162;-67
2021/12/22 00:53:20;;;;;;;3.10;2.58;;;;;;;;;;5035354;28;20169;-67
2021/12/22 00:55:46;;;;;;;2.75;2.63;;;;;;;;;;5035563;28;20162;-66
2021/12/22 00:58:12;;;;;;;3.15;2.63;;;;;;;;;;5035432;28;20198;-67
2021/12/22 01:00:37;;;;;;;3.13;2.65;;;;;;;;;;5035482;28;20181;-66
2021/12/22 01:03:03;;;;;;;2.75;2.65;;;;;;;;;;5035494;28;20246;-67
2021/12/22 01:05:28;;;;;;;2.97;2.70;;;;;;;;;;5035409;28;20190;-67
2021/12/22 01:07:54;;;;;;;2.83;2.63;;;;;;;;;;5035363;28;20232;-67
2021/12/22 01:10:21;;;;;;;2.95;2.75;;;;;;;;;;5035180;28;20613;-66
2021/12/22 01:12:47;;;;;;;4.47;2.90;;;;;;;;;;5035258;28;20202;-67
2021/12/22 01:15:12;;;;;;;3.22;2.75;;;;;;;;;;5035176;28;20221;-67
2021/12/22 01:17:42;;;;;;;2.90;2.70;;;;;;;;;;5035110;28;20198;-67
2021/12/22 01:20:16;;;;;;;2.88;2.67;;;;;;;;;;5034803;28;20666;-67
2021/12/22 01:25:08;;;;;;;2.90;2.70;;;;;;;;;;5035073;28;20266;-67
2021/12/22 01:27:37;;;;;;;3.35;3.03;;;;;;;;;;5034655;28;20718;-66
2021/12/22 01:30:04;;;;;;;3.08;2.88;;;;;;;;;;5034691;28;20163;-66
2021/12/22 01:32:30;;;;;;;2.78;2.67;;;;;;;;;;5033406;28;20174;-66
2021/12/22 01:34:55;;;;;;;3.08;2.88;;;;;;;;;;5034528;28;20255;-66
2021/12/22 01:37:20;;;;;;;3.25;2.92;;;;;;;;;;5034392;28;20594;-67
2021/12/22 01:39:46;;;;;;;5.00;2.85;;;;;;;;;;5034763;28;20170;-66
2021/12/22 01:42:11;;;;;;;3.47;3.17;;;;;;;;;;5034490;28;20253;-67
2021/12/22 01:44:49;;;;;;;2.95;2.75;;;;;;;;;;5034437;28;20173;-66
2021/12/22 01:49:58;;;;;;;2.70;2.50;;;;;;;;;;5034334;28;20178;-68
2021/12/22 01:52:24;;;;;;;3.00;2.80;;;;;;;;;;5034569;28;20166;-66
2021/12/22 01:54:50;;;;;;;2.72;2.53;;;;;;;;;;5034401;28;20221;-67
2021/12/22 01:57:16;;;;;;;2.80;2.60;;;;;;;;;;5033356;28;20205;-67
2021/12/22 01:59:42;;;;;;;2.67;2.47;;;;;;;;;;5034149;28;20170;-65
2021/12/22 02:02:09;;;;;;;3.05;2.85;;;;;;;;;;5034355;28;20644;-66
2021/12/22 02:04:35;;;;;;;3.08;2.88;;;;;;;;;;5034074;28;20292;-66
2021/12/22 02:07:00;;;;;;;3.00;2.80;;;;;;;;;;5034254;28;20207;-67
2021/12/22 02:11:57;;;;;;;2.88;2.67;;;;;;;;;;5033994;28;20151;-66
2021/12/22 02:14:22;;;;;;;2.88;2.70;;;;;;;;;;5033790;28;20190;-67
2021/12/22 02:16:47;;;;;;;3.03;2.70;;;;;;;;;;5033733;28;20249;-67
2021/12/22 02:19:14;;;;;;;2.47;2.38;;;;;;;;;;5033768;28;20167;-66
2021/12/22 02:21:46;;;;;;;3.05;2.85;;;;;;;;;;5033702;28;20672;-66
2021/12/22 02:24:12;;;;;;;2.35;2.25;;;;;;;;;;5033960;28;20185;-66
2021/12/22 02:26:47;;;;;;;3.03;2.83;;;;;;;;;;5033895;28;20656;-66
2021/12/22 02:29:34;;;;;;;3.67;3.42;;;;;;;;;;5034188;28;20604;-67
2021/12/22 02:32:07;;;;;;;3.15;2.95;;;;;;;;;;5032311;28;20163;-67
2021/12/22 02:34:40;;;;;;;2.83;2.63;;;;;;;;;;5033472;28;20198;-66
2021/12/22 02:37:11;;;;;;;2.90;2.70;;;;;;;;;;5033378;28;20229;-66
2021/12/22 02:39:36;;;;;;;2.70;2.60;;;;;;;;;;5033678;28;20143;-66
2021/12/22 02:42:02;;;;;;;3.00;2.80;;;;;;;;;;5033345;28;20177;-66
2021/12/22 02:44:27;;;;;;;2.97;2.72;;;;;;;;;;5033294;28;20251;-67
2021/12/22 02:46:53;;;;;;;4.45;3.10;;;;;;;;;;5033475;28;20171;-66
2021/12/22 02:49:18;;;;;;;3.05;2.78;;;;;;;;;;5033224;28;20675;-67
2021/12/22 02:51:43;;;;;;;2.83;2.63;;;;;;;;;;5033187;28;20206;-67
2021/12/22 02:54:20;;;;;;;3.03;2.80;;;;;;;;;;5033145;28;20205;-67
2021/12/22 03:04:20;;;;;;;2.80;2.60;;;;;;;;;;5033013;28;20542;-67
2021/12/22 03:09:18;;;;;;;3.90;2.80;;;;;;;;;;5033143;28;20659;-67
2021/12/22 03:11:44;;;;;;;3.38;2.85;;;;;;;;;;5033050;28;20185;-67
2021/12/22 03:14:09;;;;;;;3.08;2.88;;;;;;;;;;5032950;28;20182;-67
2021/12/22 03:16:34;;;;;;;2.90;2.72;;;;;;;;;;5032633;28;20209;-67
2021/12/22 03:19:00;;;;;;;2.80;2.60;;;;;;;;;;5032659;28;20245;-67
2021/12/22 03:21:25;;;;;;;2.80;2.60;;;;;;;;;;5032611;28;20588;-66
2021/12/22 03:23:52;;;;;;;2.90;2.70;;;;;;;;;;5032864;28;20358;-66
2021/12/22 03:26:18;;;;;;;2.72;2.53;;;;;;;;;;5032827;28;20170;-66
2021/12/22 03:28:45;;;;;;;2.92;2.50;;;;;;;;;;5032759;28;20179;-66
2021/12/22 03:31:10;;;;;;;2.63;2.42;;;;;;;;;;5032471;28;20536;-66
2021/12/22 03:33:35;;;;;;;2.63;2.50;;;;;;;;;;5032240;28;20178;-66
2021/12/22 03:36:00;;;;;;;2.58;2.40;;;;;;;;;;5032642;28;20162;-67
2021/12/22 03:38:26;;;;;;;2.70;2.60;;;;;;;;;;5032513;28;20633;-66
2021/12/22 03:40:51;;;;;;;2.50;2.40;;;;;;;;;;5032565;28;20746;-66
2021/12/22 03:43:17;;;;;;;2.63;2.42;;;;;;;;;;5032254;28;20269;-67
2021/12/22 03:45:42;;;;;;;2.47;2.38;;;;;;;;;;5032693;28;20175;-67
2021/12/22 03:48:07;;;;;;;2.72;2.53;;;;;;;;;;5032187;28;20285;-66
2021/12/22 03:50:32;;;;;;;4.15;2.90;;;;;;;;;;5032693;28;20167;-66
2021/12/22 03:52:58;;;;;;;3.20;2.90;;;;;;;;;;5032165;28;20230;-66
2021/12/22 03:55:23;;;;;;;3.38;3.08;;;;;;;;;;5032669;28;20170;-67
2021/12/22 03:57:50;;;;;;;4.65;3.03;;;;;;;;;;5031973;28;20195;-67
2021/12/22 04:00:15;;;;;;;4.75;3.05;;;;;;;;;;5031969;28;20602;-67
2021/12/22 04:02:40;;;;;;;3.08;2.83;;;;;;;;;;5032033;28;20170;-66
2021/12/22 04:05:06;;;;;;;3.40;3.10;;;;;;;;;;5031985;28;20174;-67
2021/12/22 04:07:32;;;;;;;3.10;2.85;;;;;;;;;;5031967;28;20178;-66
2021/12/22 04:09:58;;;;;;;4.15;2.88;;;;;;;;;;5032177;28;20249;-66
2021/12/22 04:12:23;;;;;;;2.83;2.63;;;;;;;;;;5031911;28;20170;-66
2021/12/22 04:14:48;;;;;;;2.90;2.70;;;;;;;;;;5031888;28;20244;-67
2021/12/22 04:17:13;;;;;;;4.13;2.95;;;;;;;;;;5031784;28;20626;-67
2021/12/22 04:19:39;;;;;;;3.30;3.10;;;;;;;;;;5034061;28;20166;-66
2021/12/22 04:22:04;;;;;;;2.95;2.72;;;;;;;;;;5035882;28;20167;-66
2021/12/22 04:24:31;;;;;;;2.90;2.70;;;;;;;;;;5036246;28;20174;-66
2021/12/22 04:26:56;;;;;;;2.80;2.58;;;;;;;;;;5036075;28;20204;-66
2021/12/22 04:29:22;;;;;;;3.40;3.10;;;;;;;;;;5036056;28;20171;-68
2021/12/22 04:31:47;;;;;;;3.58;3.20;;;;;;;;;;5036046;28;20182;-67
2021/12/22 04:34:12;;;;;;;3.97;3.35;;;;;;;;;;5035605;28;20264;-67
2021/12/22 04:36:38;;;;;;;3.10;2.90;;;;;;;;;;5035911;28;20297;-68
2021/12/22 04:39:04;;;;;;;3.78;3.40;;;;;;;;;;5035876;28;20253;-67
2021/12/22 04:41:30;;;;;;;3.90;3.38;;;;;;;;;;5035862;28;20178;-65
2021/12/22 04:43:55;;;;;;;5.07;3.50;;;;;;;;;;5035861;28;20178;-67
2021/12/22 04:46:21;;;;;;;3.53;3.08;;;;;;;;;;5035814;28;20175;-66
2021/12/22 04:48:46;;;;;;;3.22;3.03;;;;;;;;;;5035518;28;20169;-68
2021/12/22 04:51:24;;;;;;;4.22;3.83;;;;;;;;;;5035437;28;20181;-68
2021/12/22 04:54:01;;;;;;;2.92;2.72;;;;;;;;;;5035448;28;20170;-66
2021/12/22 04:56:26;;;;;;;3.72;3.08;;;;;;;;;;5036124;28;20204;-66
2021/12/22 04:58:52;;;;;;;3.72;3.38;;;;;;;;;;5035300;28;20167;-66
2021/12/22 05:01:18;;;;;;;3.10;2.92;;;;;;;;;;5035254;28;20637;-66
2021/12/22 05:03:43;;;;;;;3.40;3.10;;;;;;;;;;5035227;28;20177;-66
2021/12/22 05:06:08;;;;;;;3.80;2.92;;;;;;;;;;5035433;28;20189;-66
2021/12/22 05:08:34;;;;;;;3.50;3.20;;;;;;;;;;5035059;28;20169;-67
2021/12/22 05:10:59;;;;;;;4.18;3.78;;;;;;;;;;5035048;28;20249;-66
2021/12/22 05:13:24;;;;;;;4.97;3.75;;;;;;;;;;5035041;28;20608;-67
2021/12/22 05:15:51;;;;;;;3.55;3.33;;;;;;;;;;5035197;28;20277;-66
2021/12/22 05:18:48;;;;;;;3.55;3.35;;;;;;;;;;5035131;28;20189;-67
2021/12/22 05:21:08;;;;;;;3.08;2.88;;;;;;;;;;5034746;28;20209;-67
2021/12/22 05:23:33;;;;;;;3.50;3.30;;;;;;;;;;5034824;28;20660;-67
2021/12/22 05:25:58;;;;;;;2.95;2.78;;;;;;;;;;5035030;28;20285;-67
2021/12/22 05:28:23;;;;;;;2.85;2.60;;;;;;;;;;5034801;28;20202;-68
2021/12/22 05:30:49;;;;;;;3.15;2.85;;;;;;;;;;5034597;28;20644;-67
2021/12/22 05:33:14;;;;;;;3.75;3.45;;;;;;;;;;5034565;28;20566;-67
2021/12/22 05:35:39;;;;;;;3.40;3.15;;;;;;;;;;5034562;28;20178;-66
2021/12/22 05:38:05;;;;;;;3.97;2.92;;;;;;;;;;5034485;28;20202;-66
2021/12/22 05:40:31;;;;;;;5.15;3.60;;;;;;;;;;5034437;28;20211;-66
2021/12/22 05:42:57;;;;;;;3.28;3.08;;;;;;;;;;5035058;28;20181;-66
2021/12/22 05:45:22;;;;;;;3.47;3.00;;;;;;;;;;5034737;28;20210;-66
2021/12/22 05:47:47;;;;;;;4.13;3.83;;;;;;;;;;5034663;28;20201;-66
2021/12/22 05:50:12;;;;;;;2.72;2.63;;;;;;;;;;5034386;28;20655;-67
2021/12/22 05:52:38;;;;;;;3.05;2.85;;;;;;;;;;5034344;28;20170;-67
2021/12/22 05:55:03;;;;;;;3.70;3.38;;;;;;;;;;5034515;28;20174;-67
2021/12/22 05:57:29;;;;;;;3.03;2.75;;;;;;;;;;5034403;28;20202;-66
2021/12/22 05:59:54;;;;;;;8.48;6.10;;;;;;;;;;5034149;28;20671;-66
2021/12/22 06:02:19;;;;;;;11.07;7.28;;;;;;;;;;5034512;28;20171;-65
2021/12/22 06:04:44;;;;;;;19.50;12.02;;;;;;;;;;5034072;28;20305;-66
2021/12/22 06:07:10;;;;;;;11.88;7.75;;;;;;;;;;5034039;28;20174;-66
2021/12/22 06:09:35;;;;;;;14.70;10.60;;;;;;;;;;5035051;28;20181;-66
2021/12/22 06:12:00;;;;;;;12.48;9.60;;;;;;;;;;5034203;28;20179;-66
2021/12/22 06:14:25;;;;;;;13.20;8.98;;;;;;;;;;5033807;28;20664;-67
2021/12/22 06:16:51;;;;;;;11.23;6.93;;;;;;;;;;5033799;28;20226;-67
2021/12/22 06:19:16;;;;;;;155.73;71.55;;;;;;;;;;5033743;28;20174;-67
2021/12/22 06:21:41;;;;;;;22.13;13.85;;;;;;;;;;5033682;28;20273;-67
2021/12/22 06:24:08;;;;;;;10.10;7.55;;;;;;;;;;5033973;28;20174;-67
2021/12/22 06:26:33;;;;;;;10.48;8.05;;;;;;;;;;5034466;28;20611;-67
2021/12/22 06:28:58;;;;;;;34.90;17.98;;;;;;;;;;5033902;28;20174;-66
2021/12/22 06:31:24;;;;;;;23.90;14.48;;;;;;;;;;5033395;28;20185;-67
2021/12/22 06:33:49;;;;;;;20.17;12.13;;;;;;;;;;5033399;28;20217;-67
2021/12/22 06:36:14;;;;;;;24.10;15.20;;;;;;;;;;5033421;28;20174;-67
2021/12/22 06:38:40;;;;;;;17.52;11.65;;;;;;;;;;5033738;28;20162;-66
2021/12/22 06:41:06;;;;;;;32.78;20.02;;;;;;;;;;5033099;28;20171;-66
2021/12/22 06:43:31;;;;;;;32.85;20.17;;;;;;;;;;5033051;28;20205;-68
2021/12/22 06:45:56;;;;;;;24.27;16.73;;;;;;;;;;5033233;28;20553;-68
2021/12/22 06:48:22;;;;;;;13.40;10.02;;;;;;;;;;5033261;28;20181;-67
2021/12/22 06:50:47;;;;;;;13.40;9.95;;;;;;;;;;5033748;28;20190;-69
2021/12/22 06:53:12;;;;;;;11.23;8.02;;;;;;;;;;5033382;28;20178;-66
2021/12/22 06:55:37;;;;;;;21.48;11.25;;;;;;;;;;5033096;28;20166;-66
2021/12/22 06:58:03;;;;;;;25.98;10.23;;;;;;;;;;5032928;28;20674;-67
2021/12/22 07:00:28;;;;;;;22.50;14.90;;;;;;;;;;5033293;28;20167;-67
2021/12/22 07:02:56;;;;;;;13.40;10.82;;;;;;;;;;5033229;28;20171;-66
2021/12/22 07:05:21;;;;;;;9.40;7.75;;;;;;;;;;5033664;28;20174;-67
2021/12/22 07:07:47;;;;;;;12.98;8.60;;;;;;;;;;5033139;28;20221;-67
2021/12/22 07:10:12;;;;;;;5.22;4.72;;;;;;;;;;5032778;28;20178;-67
2021/12/22 07:12:41;;;;;;;5.10;4.60;;;;;;;;;;5032781;28;20167;-67
2021/12/22 07:15:09;;;;;;;4.75;4.15;;;;;;;;;;5032665;28;20186;-66
2021/12/22 07:17:35;;;;;;;4.85;4.43;;;;;;;;;;5032574;28;20195;-67
2021/12/22 07:20:00;;;;;;;3.80;3.50;;;;;;;;;;5032601;28;20163;-67
2021/12/22 07:22:26;;;;;;;6.35;3.75;;;;;;;;;;5032530;28;20249;-67
2021/12/22 07:24:51;;;;;;;4.57;4.05;;;;;;;;;;5032555;28;20169;-67
2021/12/22 07:27:16;;;;;;;4.20;3.90;;;;;;;;;;5032509;28;20174;-67
2021/12/22 07:29:41;;;;;;;4.57;4.18;;;;;;;;;;5032959;28;20178;-68
2021/12/22 07:32:07;;;;;;;7.15;4.60;;;;;;;;;;5032463;28;20170;-66
2021/12/22 07:34:46;;;;;;;4.70;4.30;;;;;;;;;;5032478;28;20343;-67
2021/12/22 07:37:22;;;;;;;5.13;4.15;;;;;;;;;;5032304;28;20194;-66
2021/12/22 07:39:47;;;;;;;3.92;3.40;;;;;;;;;;5032835;28;20538;-66
2021/12/22 07:42:12;;;;;;;3.42;3.22;;;;;;;;;;5032245;28;20174;-67
2021/12/22 07:44:38;;;;;;;3.33;3.10;;;;;;;;;;5031007;28;20262;-66
2021/12/22 07:47:03;;;;;;;5.05;4.13;;;;;;;;;;5032195;28;20237;-66
2021/12/22 07:49:28;;;;;;;9.48;4.60;;;;;;;;;;5032115;28;20170;-67
2021/12/22 07:51:53;;;;;;;5.18;4.07;;;;;;;;;;5032129;28;20205;-66
2021/12/22 07:54:19;;;;;;;5.53;4.15;;;;;;;;;;5031522;28;20170;-66
2021/12/22 07:56:44;;;;;;;4.63;4.05;;;;;;;;;;5032045;28;20284;-66
2021/12/22 07:59:09;;;;;;;4.78;4.00;;;;;;;;;;5032032;28;20162;-66
2021/12/22 08:01:35;;;;;;;8.88;3.50;;;;;;;;;;5032045;28;20529;-66
2021/12/22 08:04:00;;;;;;;6.63;4.82;;;;;;;;;;5032001;28;20220;-67
2021/12/22 08:06:25;;;;;;;5.55;4.90;;;;;;;;;;5031940;28;20166;-67
2021/12/22 08:08:50;;;;;;;7.43;5.40;;;;;;;;;;5032518;28;20184;-67
2021/12/22 08:11:16;;;;;;;4.88;4.10;;;;;;;;;;5031887;28;20166;-66
2021/12/22 08:13:41;;;;;;;4.00;3.40;;;;;;;;;;5031913;28;20301;-66
2021/12/22 08:16:06;;;;;;;5.07;3.60;;;;;;;;;;5032593;28;20223;-66
2021/12/22 08:18:32;;;;;;;3.25;2.95;;;;;;;;;;5031762;28;20376;-66
2021/12/22 08:20:57;;;;;;;5.63;5.00;;;;;;;;;;5032121;28;20251;-66
2021/12/22 08:23:22;;;;;;;5.88;4.35;;;;;;;;;;5031778;28;20181;-66
2021/12/22 08:25:48;;;;;;;6.60;4.93;;;;;;;;;;5031764;28;20174;-67
2021/12/22 08:28:13;;;;;;;4.88;4.07;;;;;;;;;;5031791;28;20176;-67
2021/12/22 08:30:39;;;;;;;4.60;3.97;;;;;;;;;;5031747;28;20253;-67
2021/12/22 08:33:15;;;;;;;3.38;3.10;;;;;;;;;;5031779;28;20244;-67
2021/12/22 08:41:08;;;;;;;5.30;3.97;;;;;;;;;;5031973;28;20250;-68
2021/12/22 08:43:34;;;;;;;8.43;4.25;;;;;;;;;;5031471;28;20645;-67
2021/12/22 08:45:59;;;;;;;3.67;3.38;;;;;;;;;;5031592;28;20216;-67
2021/12/22 08:48:24;;;;;;;6.13;4.22;;;;;;;;;;5031596;28;20628;-66
2021/12/22 08:50:49;;;;;;;3.88;3.58;;;;;;;;;;5032116;28;20167;-66
2021/12/22 08:53:15;;;;;;;9.27;6.43;;;;;;;;;;5031585;28;20250;-67
2021/12/22 08:55:40;;;;;;;8.15;5.43;;;;;;;;;;5031562;28;20170;-66
2021/12/22 08:58:07;;;;;;;3.83;3.53;;;;;;;;;;5031413;28;20255;-66
2021/12/22 09:00:36;;;;;;;5.63;3.45;;;;;;;;;;5031500;28;20198;-67
2021/12/22 09:03:01;;;;;;;6.68;4.95;;;;;;;;;;5031742;28;20165;-66
2021/12/22 09:05:26;;;;;;;6.88;4.60;;;;;;;;;;5033151;28;20158;-67
2021/12/22 09:07:52;;;;;;;6.38;5.15;;;;;;;;;;5035646;28;20174;-66
2021/12/22 09:10:17;;;;;;;3.65;3.42;;;;;;;;;;5035087;28;20660;-67
2021/12/22 09:12:42;;;;;;;4.63;4.22;;;;;;;;;;5035346;28;20178;-67
2021/12/22 09:15:08;;;;;;;7.28;5.55;;;;;;;;;;5034934;28;20681;-67
2021/12/22 09:17:33;;;;;;;8.02;5.40;;;;;;;;;;5035154;28;20194;-67
2021/12/22 09:19:58;;;;;;;7.18;5.65;;;;;;;;;;5034850;28;20248;-67
2021/12/22 09:22:24;;;;;;;5.97;5.28;;;;;;;;;;5034877;28;20167;-67
2021/12/22 09:24:49;;;;;;;6.13;5.47;;;;;;;;;;5034869;28;20671;-67
2021/12/22 09:27:15;;;;;;;12.55;6.47;;;;;;;;;;5035108;28;20170;-67
2021/12/22 09:29:41;;;;;;;10.07;6.28;;;;;;;;;;5034743;28;20692;-66
2021/12/22 09:32:06;;;;;;;8.23;6.57;;;;;;;;;;5034726;28;20170;-67
2021/12/22 09:34:32;;;;;;;9.85;6.93;;;;;;;;;;5034555;28;20603;-67
2021/12/22 09:36:57;;;;;;;8.18;6.82;;;;;;;;;;5035104;28;20186;-67
2021/12/22 09:39:22;;;;;;;11.63;8.43;;;;;;;;;;5034840;28;20551;-67
2021/12/22 09:41:49;;;;;;;9.73;7.90;;;;;;;;;;5034831;28;20178;-68
2021/12/22 09:44:14;;;;;;;27.40;14.50;;;;;;;;;;5034509;28;20254;-67
2021/12/22 09:46:40;;;;;;;18.45;10.73;;;;;;;;;;5034966;28;20194;-68
2021/12/22 09:49:19;;;;;;;12.95;9.02;;;;;;;;;;5034636;28;20185;-67
2021/12/22 09:54:29;;;;;;;15.07;10.30;;;;;;;;;;5035179;28;20165;-67
2021/12/22 09:56:54;;;;;;;10.40;8.65;;;;;;;;;;5034469;28;20269;-67
2021/12/22 09:59:20;;;;;;;12.30;8.57;;;;;;;;;;5034177;28;20162;-67
2021/12/22 10:01:45;;;;;;;10.85;8.93;;;;;;;;;;5034183;28;20194;-67
2021/12/22 10:04:16;;;;;;;14.27;9.38;;;;;;;;;;5034396;28;20672;-67
2021/12/22 10:06:41;;;;;;;10.70;8.68;;;;;;;;;;5035226;28;20550;-65
2021/12/22 10:09:07;;;;;;;10.75;8.18;;;;;;;;;;5034024;28;20171;-67
2021/12/22 10:11:33;;;;;;;12.05;8.27;;;;;;;;;;5034001;28;20181;-67
2021/12/22 10:13:58;;;;;;;13.48;9.57;;;;;;;;;;5033838;28;20668;-69
2021/12/22 10:16:25;;;;;;;14.38;9.88;;;;;;;;;;5032901;28;20181;-67
2021/12/22 10:19:07;;;;;;;14.07;9.93;;;;;;;;;;5034153;28;20166;-67
2021/12/22 10:21:33;;;;;;;12.43;9.25;;;;;;;;;;5034099;28;20167;-67
2021/12/22 10:24:01;;;;;;;11.52;8.45;;;;;;;;;;5033768;28;20193;-66
2021/12/22 10:26:27;;;;;;;17.60;10.68;;;;;;;;;;5033750;28;20190;-66
2021/12/22 10:28:55;;;;;;;11.23;8.88;;;;;;;;;;5033692;28;20346;-67
2021/12/22 10:31:23;;;;;;;10.98;9.15;;;;;;;;;;5033632;28;20174;-67
2021/12/22 10:33:49;;;;;;;11.57;8.40;;;;;;;;;;5033646;28;20214;-66
2021/12/22 10:36:16;;;;;;;10.48;8.20;;;;;;;;;;5033514;28;20651;-67
2021/12/22 10:38:47;;;;;;;13.55;8.75;;;;;;;;;;5032096;28;20613;-67
2021/12/22 10:41:13;;;;;;;15.05;8.55;;;;;;;;;;5033738;28;20170;-67
2021/12/22 10:43:42;;;;;;;13.13;9.48;;;;;;;;;;5033907;28;20166;-67
2021/12/22 10:46:13;;;;;;;29.30;16.63;;;;;;;;;;5033617;28;20179;-67
2021/12/22 10:51:26;;;;;;;17.48;10.90;;;;;;;;;;5033777;28;20241;-68
2021/12/22 10:53:53;;;;;;;15.43;11.07;;;;;;;;;;5033235;28;20170;-68
2021/12/22 10:56:37;;;;;;;22.95;15.80;;;;;;;;;;5033076;28;20265;-66
2021/12/22 10:59:03;;;;;;;25.00;13.75;;;;;;;;;;5033344;28;20205;-67
2021/12/22 11:01:28;;;;;;;18.80;12.27;;;;;;;;;;5033032;28;20195;-67
2021/12/22 11:04:02;;;;;;;18.40;10.40;;;;;;;;;;5033256;28;20166;-67
2021/12/22 11:06:29;;;;;;;19.13;11.73;;;;;;;;;;5032921;28;20156;-67
2021/12/22 11:08:56;;;;;;;10.82;8.65;;;;;;;;;;5032822;28;20174;-67
2021/12/22 11:11:22;;;;;;;13.60;9.70;;;;;;;;;;5033122;28;20167;-67
2021/12/22 11:14:00;;;;;;;13.80;8.65;;;;;;;;;;5032982;28;20248;-66
2021/12/22 11:16:26;;;;;;;13.45;8.88;;;;;;;;;;5032999;28;20189;-67
2021/12/22 11:18:51;;;;;;;10.90;7.93;;;;;;;;;;5032743;28;20198;-67
2021/12/22 11:21:22;;;;;;;15.88;9.68;;;;;;;;;;5032672;28;20640;-66
2021/12/22 11:23:48;;;;;;;23.98;14.32;;;;;;;;;;5032752;28;20241;-66
2021/12/22 11:26:13;;;;;;;13.32;7.95;;;;;;;;;;5032596;28;20246;-66
2021/12/22 11:28:39;;;;;;;16.63;8.40;;;;;;;;;;5032415;28;20333;-66
2021/12/22 11:31:05;;;;;;;15.23;9.57;;;;;;;;;;5032518;28;20189;-66
2021/12/22 11:33:31;;;;;;;14.95;10.40;;;;;;;;;;5032374;28;20183;-66
2021/12/22 11:35:57;;;;;;;14.45;10.18;;;;;;;;;;5031243;28;20212;-66
2021/12/22 11:38:23;;;;;;;17.08;9.70;;;;;;;;;;5032328;28;20236;-66
2021/12/22 11:41:07;;;;;;;11.10;9.10;;;;;;;;;;5033401;28;20178;-66
2021/12/22 11:43:34;;;;;;;14.07;9.70;;;;;;;;;;5032325;28;20174;-66
2021/12/22 11:46:00;;;;;;;14.50;11.02;;;;;;;;;;5032552;28;20166;-67
2021/12/22 11:48:26;;;;;;;14.85;11.32;;;;;;;;;;5032274;28;20221;-66
2021/12/22 11:50:51;;;;;;;18.00;10.25;;;;;;;;;;5032237;28;20722;-67
2021/12/22 11:53:16;;;;;;;13.27;9.63;;;;;;;;;;5032187;28;20171;-67
2021/12/22 11:55:43;;;;;;;16.85;9.50;;;;;;;;;;5032117;28;20604;-67
2021/12/22 11:58:13;;;;;;;11.88;9.20;;;;;;;;;;5032053;28;20252;-66
2021/12/22 12:00:38;;;;;;;13.50;10.20;;;;;;;;;;5032035;28;20258;-65
2021/12/22 12:03:22;;;;;;;14.90;9.60;;;;;;;;;;5032014;28;20613;-66
2021/12/22 12:06:01;;;;;;;14.40;8.75;;;;;;;;;;5032164;28;20550;-67
2021/12/22 12:08:32;;;;;;;41.83;16.88;;;;;;;;;;5032208;28;20178;-67
2021/12/22 12:10:59;;;;;;;21.90;13.07;;;;;;;;;;5031957;28;20162;-67
2021/12/22 12:13:33;;;;;;;15.05;9.30;;;;;;;;;;5031907;28;20268;-66
2021/12/22 12:22:29;;;;;;;69.60;27.52;;;;;;;;;;5032399;28;20173;-67
2021/12/22 12:24:54;;;;;;;51.97;20.98;;;;;;;;;;5030605;28;20566;-67
2021/12/22 12:27:38;;;;;;;50.63;21.30;;;;;;;;;;5031795;28;20652;-66
2021/12/22 12:30:07;;;;;;;21.10;11.80;;;;;;;;;;5032316;28;20553;-67
2021/12/22 12:32:41;;;;;;;19.65;9.93;;;;;;;;;;5031692;28;20166;-67
2021/12/22 12:35:28;;;;;;;18.50;10.48;;;;;;;;;;5031481;28;20189;-67
2021/12/22 12:38:01;;;;;;;30.83;13.73;;;;;;;;;;5031936;28;20182;-67
2021/12/22 12:40:45;;;;;;;20.52;12.20;;;;;;;;;;5033712;28;20174;-67
2021/12/22 12:43:10;;;;;;;21.42;11.85;;;;;;;;;;5036203;28;20171;-67
2021/12/22 12:45:45;;;;;;;25.88;12.70;;;;;;;;;;5035600;28;20177;-66
2021/12/22 12:48:27;;;;;;;24.95;11.70;;;;;;;;;;5035557;28;20155;-66
2021/12/22 12:51:14;;;;;;;23.10;12.32;;;;;;;;;;5036228;28;20604;-66
2021/12/22 12:53:40;;;;;;;19.33;11.00;;;;;;;;;;5035690;28;20182;-66
2021/12/22 12:56:07;;;;;;;17.85;11.40;;;;;;;;;;5035375;28;20565;-67
2021/12/22 12:58:32;;;;;;;16.73;11.43;;;;;;;;;;5035259;28;20186;-66
2021/12/22 13:00:58;;;;;;;15.43;11.20;;;;;;;;;;5035261;28;20178;-66
2021/12/22 13:03:23;;;;;;;20.35;11.35;;;;;;;;;;5035189;28;20249;-67
2021/12/22 13:05:48;;;;;;;22.20;12.20;;;;;;;;;;5035172;28;20599;-67
2021/12/22 13:08:13;;;;;;;18.30;11.65;;;;;;;;;;5035149;28;20174;-67
2021/12/22 13:10:41;;;;;;;20.98;11.82;;;;;;;;;;5035313;28;20553;-66
2021/12/22 13:13:50;;;;;;;20.30;11.02;;;;;;;;;;5035084;28;20186;-66
2021/12/22 13:15:55;;;;;;;24.85;13.25;;;;;;;;;;5034645;28;20198;-67
2021/12/22 13:18:26;;;;;;;18.33;11.25;;;;;;;;;;5035163;28;20213;-67
2021/12/22 13:20:55;;;;;;;25.75;19.55;;;;;;;;;;5033725;28;20552;-67
2021/12/22 13:23:21;;;;;;;24.17;14.63;;;;;;;;;;5035131;28;20185;-66
2021/12/22 13:25:48;;;;;;;16.33;11.50;;;;;;;;;;5034841;28;20171;-67
2021/12/22 13:28:17;;;;;;;20.00;12.95;;;;;;;;;;5034742;28;20179;-67
2021/12/22 13:30:52;;;;;;;20.67;12.32;;;;;;;;;;5034690;28;20728;-66
2021/12/22 13:33:19;;;;;;;25.42;15.27;;;;;;;;;;5034821;28;20184;-66
2021/12/22 13:35:50;;;;;;;23.40;14.95;;;;;;;;;;5034866;28;20171;-67
2021/12/22 13:38:19;;;;;;;27.17;15.32;;;;;;;;;;5034786;28;20634;-67
2021/12/22 13:40:46;;;;;;;23.63;15.63;;;;;;;;;;5034795;28;20179;-67
2021/12/22 13:43:19;;;;;;;36.97;20.27;;;;;;;;;;5034490;28;20228;-66
2021/12/22 13:45:45;;;;;;;40.53;20.77;;;;;;;;;;5034419;28;20225;-67
2021/12/22 13:48:24;;;;;;;24.08;14.50;;;;;;;;;;5034622;28;20182;-67
2021/12/22 13:50:49;;;;;;;19.58;11.40;;;;;;;;;;5034284;28;20546;-67
2021/12/22 13:53:15;;;;;;;13.27;9.35;;;;;;;;;;5034335;28;20272;-66
2021/12/22 13:55:41;;;;;;;16.23;9.32;;;;;;;;;;5034562;28;20553;-66
2021/12/22 13:58:25;;;;;;;18.20;9.27;;;;;;;;;;5034163;28;20199;-66
2021/12/22 14:01:08;;;;;;;15.45;10.25;;;;;;;;;;5034150;28;20167;-66
2021/12/22 14:03:33;;;;;;;17.90;10.00;;;;;;;;;;5034408;28;20155;-66
2021/12/22 14:06:06;;;;;;;13.38;9.50;;;;;;;;;;5034180;28;20173;-66
2021/12/22 14:08:32;;;;;;;16.23;10.45;;;;;;;;;;5034061;28;20186;-66
2021/12/22 14:10:57;;;;;;;23.73;13.98;;;;;;;;;;5034413;28;20170;-66
2021/12/22 14:13:29;;;;;;;31.70;18.83;;;;;;;;;;5034239;28;20182;-67
2021/12/22 14:15:55;;;;;;;31.98;16.83;;;;;;;;;;5033841;28;20721;-66
2021/12/22 14:18:20;;;;;;;38.13;18.73;;;;;;;;;;5034062;28;20229;-67
2021/12/22 14:20:46;;;;;;;30.30;18.17;;;;;;;;;;5033891;28;20632;-67
2021/12/22 14:23:11;;;;;;;45.40;27.33;;;;;;;;;;5033923;28;20531;-68
2021/12/22 14:25:37;;;;;;;40.85;24.88;;;;;;;;;;5033802;28;20169;-66
2021/12/22 14:28:16;;;;;;;26.45;15.40;;;;;;;;;;5033994;28;20190;-66
2021/12/22 14:30:42;;;;;;;24.60;14.82;;;;;;;;;;5033924;28;20178;-66
2021/12/22 14:33:07;;;;;;;26.17;15.15;;;;;;;;;;5033543;28;20683;-67
2021/12/22 14:35:42;;;;;;;22.50;15.65;;;;;;;;;;5033424;28;20194;-67
2021/12/22 14:38:08;;;;;;;29.65;15.02;;;;;;;;;;5033672;28;20260;-67
2021/12/22 14:40:36;;;;;;;20.80;13.95;;;;;;;;;;5033760;28;20186;-67
2021/12/22 14:43:03;;;;;;;22.05;12.95;;;;;;;;;;5033687;28;20262;-67
2021/12/22 14:45:47;;;;;;;18.30;12.52;;;;;;;;;;5033342;28;20309;-67
2021/12/22 14:48:15;;;;;;;19.92;13.02;;;;;;;;;;5033272;28;20667;-67
2021/12/22 14:50:57;;;;;;;20.20;13.65;;;;;;;;;;5033506;28;20190;-67
2021/12/22 14:53:26;;;;;;;21.27;12.88;;;;;;;;;;5031952;28;20177;-67
2021/12/22 14:55:54;;;;;;;17.42;11.13;;;;;;;;;;5033201;28;20224;-67
2021/12/22 14:58:19;;;;;;;18.70;11.63;;;;;;;;;;5033316;28;20328;-66
2021/12/22 15:00:46;;;;;;;15.85;10.68;;;;;;;;;;5032907;28;20646;-67
2021/12/22 15:03:13;;;;;;;14.20;9.35;;;;;;;;;;5032592;28;20178;-67
2021/12/22 15:05:39;;;;;;;16.17;9.90;;;;;;;;;;5033219;28;20579;-67
2021/12/22 15:08:04;;;;;;;12.48;9.98;;;;;;;;;;5032912;28;20204;-67
2021/12/22 15:10:30;;;;;;;19.90;9.52;;;;;;;;;;5033156;28;20178;-67